Butler, Minnesota
Current Conditions -  °F | °C
As of 3:53 AM on Monday 22 Dec 2014 (Local Time) from KADC Reporting Station
Drizzle Drizzle  
Wind Chill: 26°   Ceiling: 600
Heat Index: 34°   Visibility: 2mi
Dew Point: 34°   Wind: 10mph
Humidity: 100%   Direction: 130°SE
Pressure: 29.56"   Gusts: NA
Location:  46.5882°N, 95.4075°W
Report Text: KADC 220953Z AUTO 13009KT 2SM DZ OVC006 01/01 A2956 RMK AO2
Loading
Personal Weather Stations






























Interactive Weather Map New forecast layout! Learn more

10-Day Weather Forecast

Advertisements
Track Severe Weather on mobile